Buoy 46770

sailwx.info

Track history (hours):
 
Tides and Currents Weather Stations Pressure Air Temp Water Temp Dewpoint Dewpoint Depression Visibility Wind Speed Wind Dir Waves Ship Positions

Drifting buoy 46770

Last reported at 2018-Jun-19 16:00 UTC. Time now 2018-Jun-19 17:47 UTC.
Position N 17°52' W 176°25'.

Barometer 1014.8 mb
Water temperature 27.9 ° C

Date/timePositionNaut miles runAvg speedWind from/ knotsBaromVisibWave heightAir tempDewpointWater temp
2018-Jun-19 16:00N 17°52' W 176°25'0 0.0 1014.8 27.9
2018-Jun-19 15:00N 17°52' W 176°25'0 0.0 1014.8 27.9
2018-Jun-19 14:00N 17°52' W 176°25'5 1.2 1015.0 27.9
2018-Jun-19 10:00N 17°48' W 176°22'1 0.6 1017.3 27.9
2018-Jun-19 09:00N 17°48' W 176°22'1 1.1 1017.4 27.9
2018-Jun-19 08:00N 17°48' W 176°20'1 0.6 1017.1 27.9
2018-Jun-19 07:00N 17°48' W 176°21'2 1.8 1016.8 27.9
2018-Jun-19 06:00N 17°47' W 176°19'0 0.0 1016.3 28.0
2018-Jun-19 05:00N 17°47' W 176°19'1 0.6 1015.8 28.0
2018-Jun-19 04:00N 17°47' W 176°19'1 1.3 1015.5 28.1
2018-Jun-19 03:00N 17°46' W 176°19'0 0.0 1015.3 28.1
2018-Jun-19 02:00N 17°46' W 176°19'4 0.9 1015.4 28.1
2018-Jun-18 22:00N 17°44' W 176°15'1 0.8 1016.8 27.9
2018-Jun-18 21:00N 17°45' W 176°14'1 1.1 1016.8 27.9
2018-Jun-18 20:00N 17°45' W 176°13'0 0.0 1016.8 27.9
2018-Jun-18 19:00N 17°45' W 176°13'1 0.6 1016.5 27.9
2018-Jun-18 18:00N 17°45' W 176°13'1 0.6 1016.3 27.9
2018-Jun-18 17:00N 17°45' W 176°12'1 0.6 1015.8 27.9
2018-Jun-18 16:00N 17°44' W 176°12'0 0.0 1015.7 27.9
2018-Jun-18 15:00N 17°44' W 176°12'2 0.4 1015.5 27.9
2018-Jun-18 09:00N 17°43' W 176°10'1 0.8 1017.4 28.0
2018-Jun-18 08:00N 17°42' W 176°11'1 0.6 1016.9 28.0
2018-Jun-18 07:00N 17°42' W 176°10'1 1.3 1016.2 28.1
2018-Jun-18 06:00N 17°41' W 176°10'1 0.8 1015.3 28.1
2018-Jun-18 05:00N 17°40' W 176°09'0 0.0 1015.0 28.1
2018-Jun-18 04:00N 17°40' W 176°09'1 1.3 1014.6 28.1
2018-Jun-18 03:00N 17°39' W 176°08'0 0.0 1014.5 28.1
2018-Jun-18 02:00N 17°39' W 176°08'3 0.7 1014.5 28.1
2018-Jun-17 22:00N 17°37' W 176°07'0 0.0 1015.7 27.9
2018-Jun-17 21:00N 17°37' W 176°07'2 1.7 1015.7 27.8
2018-Jun-17 20:00N 17°35' W 176°05'0 0.0 1015.7 27.8
2018-Jun-17 19:00N 17°35' W 176°05'1 0.3 1015.6 27.8
2018-Jun-17 17:00N 17°35' W 176°05'1 0.8 1014.7 27.8
2018-Jun-17 16:00N 17°35' W 176°05'0 0.0 1014.4 27.8
2018-Jun-17 15:00N 17°35' W 176°05'5 0.9 1014.3 27.8
2018-Jun-17 10:00N 17°32' W 176°02'0 0.0 1016.3 27.9
2018-Jun-17 09:00N 17°32' W 176°02'1 0.6 1015.9 27.9
2018-Jun-17 08:00N 17°32' W 176°01'1 1.3 1015.7 27.9
2018-Jun-17 07:00N 17°32' W 176°00'1 0.6 1015.2 28.0
2018-Jun-17 06:00N 17°32' W 175°59'1 0.6 1014.7 28.1
2018-Jun-17 05:00N 17°33' W 175°59'1 0.6 1014.1 28.2
2018-Jun-17 04:00N 17°33' W 175°59'0 0.0 1013.6 28.3
2018-Jun-17 03:00N 17°33' W 175°59'0 0.0 1013.5 28.4
2018-Jun-17 02:00N 17°33' W 175°59'2 0.5 1013.7 28.4
2018-Jun-16 22:00N 17°31' W 175°58'2 1.7 1014.8 27.9
2018-Jun-16 21:00N 17°30' W 175°57'1 0.6 1015.0 27.8
2018-Jun-16 20:00N 17°31' W 175°57'1 1.3 1014.8 27.8
2018-Jun-16 19:00N 17°29' W 175°56'0 0.0 1014.5 27.8
2018-Jun-16 18:00N 17°29' W 175°56'0 0.0 1014.1 27.8
2018-Jun-16 17:00N 17°29' W 175°56'0 0.0 1014.0 27.8
2018-Jun-16 16:00N 17°29' W 175°56'1 0.6 1013.9 27.8
2018-Jun-16 15:00N 17°29' W 175°56'0 0.0 1013.9 27.9
2018-Jun-16 14:00N 17°29' W 175°56'3 0.6 1014.2 27.9
2018-Jun-16 09:00N 17°26' W 175°56'1 0.8 1015.5 28.1
2018-Jun-16 08:00N 17°25' W 175°56'1 1.3 1014.8 28.1
2018-Jun-16 07:00N 17°24' W 175°55'0 0.0 1014.1 28.1
2018-Jun-16 06:00N 17°24' W 175°55'1 0.8 1013.7 28.1
2018-Jun-16 05:00N 17°23' W 175°55'1 0.6 1013.2 28.1
2018-Jun-16 03:00N 17°23' W 175°53'0 0.0 1013.0 28.3
2018-Jun-16 02:00N 17°23' W 175°53'3 3.3 1013.2 28.3
2018-Jun-16 01:00N 17°20' W 175°51'1 0.2 1013.6 28.2
2018-Jun-15 21:00N 17°20' W 175°50'1 0.6 1015.0 27.8
2018-Jun-15 20:00N 17°19' W 175°50'0 0.0 1014.9 27.7
2018-Jun-15 19:00N 17°19' W 175°50'1 0.8 1014.4 27.7
2018-Jun-15 18:00N 17°20' W 175°50'1 0.6 1014.2 27.7
2018-Jun-15 17:00N 17°20' W 175°49'0 0.0 1014.0 27.7
2018-Jun-15 16:00N 17°20' W 175°49'1 0.3 1014.1 27.7
2018-Jun-15 14:00N 17°20' W 175°49'0 0.0 1014.2 27.7
2018-Jun-15 13:00N 17°20' W 175°49'2 0.4 1014.7 27.7
2018-Jun-15 09:00N 17°19' W 175°47'0 0.0 1015.5 27.8
2018-Jun-15 08:00N 17°19' W 175°47'1 0.6 1014.7 27.8
2018-Jun-15 07:00N 17°18' W 175°47'0 0.0 1014.0 27.8
2018-Jun-15 06:00N 17°18' W 175°47'1 0.8 1013.2 27.9
2018-Jun-15 05:00N 17°17' W 175°47'0 0.0 1013.0 28.1
2018-Jun-15 04:00N 17°17' W 175°47'0 0.0 1013.1 28.1
2018-Jun-15 03:00N 17°17' W 175°47'1 0.8 1013.5 28.1
2018-Jun-15 02:00N 17°18' W 175°46'0 0.0 1013.9 28.1
2018-Jun-15 01:00N 17°18' W 175°46'2 0.7 1014.5 28.1
2018-Jun-14 22:00N 17°16' W 175°45'1 0.8 1015.7 27.7
2018-Jun-14 21:00N 17°16' W 175°44'1 0.8 1015.5 27.6
2018-Jun-14 20:00N 17°15' W 175°44'0 0.0 1014.9 27.5
2018-Jun-14 19:00N 17°15' W 175°44'1 0.8 1014.4 27.5
2018-Jun-14 18:00N 17°14' W 175°43'0 0.0 1013.9 27.5
2018-Jun-14 17:00N 17°14' W 175°43'1 0.6 1013.4 27.5
2018-Jun-14 16:00N 17°14' W 175°43'1 0.8 1012.7 27.4
2018-Jun-14 15:00N 17°14' W 175°43'0 0.0 1012.6 27.4
2018-Jun-14 14:00N 17°14' W 175°43'3 0.7 1012.7 27.5
2018-Jun-14 10:00N 17°11' W 175°41'0 0.0 1014.4 27.5
2018-Jun-14 09:00N 17°11' W 175°41'1 0.3 1014.4 27.5
2018-Jun-14 07:00N 17°11' W 175°41'1 0.6 1013.2 27.6
2018-Jun-14 06:00N 17°11' W 175°41'1 0.6 1012.6 27.6
2018-Jun-14 05:00N 17°10' W 175°41'0 0.0 1012.0 27.6
2018-Jun-14 04:00N 17°10' W 175°41'1 0.8 1011.8 27.7
2018-Jun-14 03:00N 17°10' W 175°40'0 0.0 1011.7 27.8
2018-Jun-14 02:00N 17°10' W 175°40'0 0.0 1012.2 27.7
2018-Jun-14 01:00N 17°10' W 175°40'3 1.0 1013.1 27.7
2018-Jun-13 22:00N 17°07' W 175°40'1 1.3 1014.3 27.5
2018-Jun-13 21:00N 17°05' W 175°39'1 1.3 1014.3 27.4
2018-Jun-13 20:00N 17°04' W 175°38'1 0.6 1014.1 27.4
2018-Jun-13 19:00N 17°04' W 175°39'1 1.3 1013.8 27.3
2018-Jun-13 18:00N 17°03' W 175°38'1 0.6 1013.3 27.3
2018-Jun-13 17:00N 17°03' W 175°38'1 0.8 1012.7 27.3
2018-Jun-13 16:00N 17°02' W 175°37'1 0.8 1012.4 27.3
2018-Jun-13 15:00N 17°02' W 175°37'0 0.0 1012.3 27.4
2018-Jun-13 14:00N 17°02' W 175°37'4 0.8 1012.7 27.4
2018-Jun-13 09:00N 17°01' W 175°32'1 0.6 1014.4 27.5
2018-Jun-13 08:00N 17°01' W 175°32'1 0.6 1013.8 27.5
2018-Jun-13 07:00N 17°01' W 175°31'1 0.8 1013.1 27.5
2018-Jun-13 06:00N 17°00' W 175°31'0 0.0 1012.5 27.6
2018-Jun-13 05:00N 17°00' W 175°31'1 1.1 1011.9 27.6
2018-Jun-13 04:00N 17°00' W 175°29'1 0.8 1011.7 27.8
2018-Jun-13 03:00N 16°59' W 175°29'0 0.0 1011.8 27.8
2018-Jun-13 02:00N 16°59' W 175°29'0 0.0 1012.0 27.7
2018-Jun-13 01:00N 16°59' W 175°29'2 0.8 1012.5 27.6
2018-Jun-12 22:00N 16°59' W 175°26'0 0.0 1014.0 27.5
2018-Jun-12 21:00N 16°59' W 175°26'1 0.6 1014.2 27.4
2018-Jun-12 20:00N 16°59' W 175°26'1 0.6 1013.8 27.4
2018-Jun-12 19:00N 16°59' W 175°26'0 0.0 1013.1 27.3
2018-Jun-12 18:00N 16°59' W 175°26'2 2.1 1012.5 27.4
2018-Jun-12 17:00N 16°58' W 175°25'0 0.0 1011.9 27.4
2018-Jun-12 16:00N 16°58' W 175°25'0 0.0 1011.6 27.3
2018-Jun-12 15:00N 16°58' W 175°25'0 0.0 1011.5 27.4
2018-Jun-12 14:00N 16°58' W 175°25'3 0.8 1011.5 27.4
2018-Jun-12 10:00N 16°57' W 175°22'0 0.0 1014.0 27.4
2018-Jun-12 09:00N 16°57' W 175°22'1 1.3 1014.0 27.4
2018-Jun-12 08:00N 16°56' W 175°20'1 0.6 1013.6 27.4
2018-Jun-12 07:00N 16°56' W 175°21'1 1.1 1013.3 27.5
2018-Jun-12 06:00N 16°56' W 175°20'1 0.8 1012.8 27.5
2018-Jun-12 05:00N 16°56' W 175°19'1 1.1 1012.5 27.5
2018-Jun-12 04:00N 16°56' W 175°18'1 0.6 1012.3 27.5
2018-Jun-12 03:00N 16°56' W 175°17'0 0.0 1012.1 27.5
2018-Jun-12 02:00N 16°56' W 175°17'5 1.1 1012.6 27.6
2018-Jun-11 21:00N 16°57' W 175°12'1 1.1 1014.8 27.4
2018-Jun-11 20:00N 16°57' W 175°11'0 0.0 1014.8 27.3
2018-Jun-11 18:00N 16°57' W 175°11'2 1.7 1014.1 27.3
2018-Jun-11 17:00N 16°57' W 175°09'0 0.0 1013.6 27.3
2018-Jun-11 16:00N 16°57' W 175°09'0 0.0 1013.4 27.3
2018-Jun-11 15:00N 16°57' W 175°09'0 0.0 1013.4 27.3
2018-Jun-11 14:00N 16°57' W 175°09'5 1.1 1013.5 27.3
2018-Jun-11 09:00N 16°58' W 175°04'1 1.3 1016.5 27.4
2018-Jun-11 08:00N 16°59' W 175°02'1 0.6 1016.2 27.4
2018-Jun-11 07:00N 16°59' W 175°02'1 0.6 1015.7 27.4
2018-Jun-11 06:00N 16°59' W 175°02'1 0.6 1015.0 27.4
2018-Jun-11 05:00N 16°59' W 175°01'0 0.0 1014.4 27.4
2018-Jun-11 04:00N 16°59' W 175°01'1 1.1 1014.0 27.5
2018-Jun-11 03:00N 16°59' W 175°00'0 0.0 1014.0 27.5
2018-Jun-11 02:00N 16°59' W 175°00'4 1.0 1014.6 27.4
2018-Jun-10 22:00N 17°00' W 174°56'0 0.0 1016.9 27.3
2018-Jun-10 21:00N 17°00' W 174°56'1 0.6 1017.3 27.3
2018-Jun-10 20:00N 17°00' W 174°55'0 0.0 1017.2 27.3
2018-Jun-10 19:00N 17°00' W 174°55'2 1.8 1017.0 27.3
2018-Jun-10 18:00N 16°59' W 174°53'0 0.0 1016.5 27.3
2018-Jun-10 17:00N 16°59' W 174°53'0 0.0 1016.0 27.2
2018-Jun-10 16:00N 16°59' W 174°53'0 0.0 1015.6 27.3
2018-Jun-10 15:00N 16°59' W 174°53'0 0.0 1015.5 27.3
2018-Jun-10 14:00N 16°59' W 174°53'4 0.8 1015.6 27.3
2018-Jun-10 09:00N 16°58' W 174°49'1 0.6 1017.6 27.3
2018-Jun-10 08:00N 16°58' W 174°49'2 1.8 1017.2 27.3
2018-Jun-10 07:00N 16°58' W 174°47'0 0.0 1016.4 27.3
2018-Jun-10 06:00N 16°58' W 174°47'1 0.6 1015.9 27.3
2018-Jun-10 05:00N 16°58' W 174°47'2 1.8 1015.2 27.4
2018-Jun-10 04:00N 16°58' W 174°45'0 0.0 1014.8 27.4
2018-Jun-10 03:00N 16°58' W 174°45'0 0.0 1014.7 27.4
2018-Jun-10 02:00N 16°58' W 174°45'4 1.0 1015.1 27.3
2018-Jun-09 22:00N 16°58' W 174°41'2 1.7 1016.8 27.3
2018-Jun-09 21:00N 16°58' W 174°39'0 0.0 1017.2 27.2
2018-Jun-09 20:00N 16°58' W 174°39'1 1.1 1017.4 27.2
2018-Jun-09 19:00N 16°58' W 174°38'2 1.8 1017.1 27.2
2018-Jun-09 18:00N 16°58' W 174°36'0 0.0 1016.6 27.2
2018-Jun-09 17:00N 16°58' W 174°36'0 0.0 1015.9 27.2
2018-Jun-09 16:00N 16°58' W 174°36'   1015.6 27.2
Track history (hours):
 
Tides and Currents Weather Stations Pressure Air Temp Water Temp Dewpoint Dewpoint Depression Visibility Wind Speed Wind Dir Waves Ship Positions

Drifting buoy 46770

Last reported at 2018-Jun-19 16:00 UTC. Time now 2018-Jun-19 17:47 UTC.
Position N 17°52' W 176°25'.

Barometer 1014.8 mb
Water temperature 27.9 ° C

Date/timePositionNaut miles runAvg speedWind from/ knotsBaromVisibWave heightAir tempDewpointWater temp
2018-Jun-19 16:00N 17°52' W 176°25'0 0.0 1014.8 27.9
2018-Jun-19 15:00N 17°52' W 176°25'0 0.0 1014.8 27.9
2018-Jun-19 14:00N 17°52' W 176°25'5 1.2 1015.0 27.9
2018-Jun-19 10:00N 17°48' W 176°22'1 0.6 1017.3 27.9
2018-Jun-19 09:00N 17°48' W 176°22'1 1.1 1017.4 27.9
2018-Jun-19 08:00N 17°48' W 176°20'1 0.6 1017.1 27.9
2018-Jun-19 07:00N 17°48' W 176°21'2 1.8 1016.8 27.9
2018-Jun-19 06:00N 17°47' W 176°19'0 0.0 1016.3 28.0
2018-Jun-19 05:00N 17°47' W 176°19'1 0.6 1015.8 28.0
2018-Jun-19 04:00N 17°47' W 176°19'1 1.3 1015.5 28.1
2018-Jun-19 03:00N 17°46' W 176°19'0 0.0 1015.3 28.1
2018-Jun-19 02:00N 17°46' W 176°19'4 0.9 1015.4 28.1
2018-Jun-18 22:00N 17°44' W 176°15'1 0.8 1016.8 27.9
2018-Jun-18 21:00N 17°45' W 176°14'1 1.1 1016.8 27.9
2018-Jun-18 20:00N 17°45' W 176°13'0 0.0 1016.8 27.9
2018-Jun-18 19:00N 17°45' W 176°13'1 0.6 1016.5 27.9
2018-Jun-18 18:00N 17°45' W 176°13'1 0.6 1016.3 27.9
2018-Jun-18 17:00N 17°45' W 176°12'1 0.6 1015.8 27.9
2018-Jun-18 16:00N 17°44' W 176°12'0 0.0 1015.7 27.9
2018-Jun-18 15:00N 17°44' W 176°12'2 0.4 1015.5 27.9
2018-Jun-18 09:00N 17°43' W 176°10'1 0.8 1017.4 28.0
2018-Jun-18 08:00N 17°42' W 176°11'1 0.6 1016.9 28.0
2018-Jun-18 07:00N 17°42' W 176°10'1 1.3 1016.2 28.1
2018-Jun-18 06:00N 17°41' W 176°10'1 0.8 1015.3 28.1
2018-Jun-18 05:00N 17°40' W 176°09'0 0.0 1015.0 28.1
2018-Jun-18 04:00N 17°40' W 176°09'1 1.3 1014.6 28.1
2018-Jun-18 03:00N 17°39' W 176°08'0 0.0 1014.5 28.1
2018-Jun-18 02:00N 17°39' W 176°08'3 0.7 1014.5 28.1
2018-Jun-17 22:00N 17°37' W 176°07'0 0.0 1015.7 27.9
2018-Jun-17 21:00N 17°37' W 176°07'2 1.7 1015.7 27.8
2018-Jun-17 20:00N 17°35' W 176°05'0 0.0 1015.7 27.8
2018-Jun-17 19:00N 17°35' W 176°05'1 0.3 1015.6 27.8
2018-Jun-17 17:00N 17°35' W 176°05'1 0.8 1014.7 27.8
2018-Jun-17 16:00N 17°35' W 176°05'0 0.0 1014.4 27.8
2018-Jun-17 15:00N 17°35' W 176°05'5 0.9 1014.3 27.8
2018-Jun-17 10:00N 17°32' W 176°02'0 0.0 1016.3 27.9
2018-Jun-17 09:00N 17°32' W 176°02'1 0.6 1015.9 27.9
2018-Jun-17 08:00N 17°32' W 176°01'1 1.3 1015.7 27.9
2018-Jun-17 07:00N 17°32' W 176°00'1 0.6 1015.2 28.0
2018-Jun-17 06:00N 17°32' W 175°59'1 0.6 1014.7 28.1
2018-Jun-17 05:00N 17°33' W 175°59'1 0.6 1014.1 28.2
2018-Jun-17 04:00N 17°33' W 175°59'0 0.0 1013.6 28.3
2018-Jun-17 03:00N 17°33' W 175°59'0 0.0 1013.5 28.4
2018-Jun-17 02:00N 17°33' W 175°59'2 0.5 1013.7 28.4
2018-Jun-16 22:00N 17°31' W 175°58'2 1.7 1014.8 27.9
2018-Jun-16 21:00N 17°30' W 175°57'1 0.6 1015.0 27.8
2018-Jun-16 20:00N 17°31' W 175°57'1 1.3 1014.8 27.8
2018-Jun-16 19:00N 17°29' W 175°56'0 0.0 1014.5 27.8
2018-Jun-16 18:00N 17°29' W 175°56'0 0.0 1014.1 27.8
2018-Jun-16 17:00N 17°29' W 175°56'0 0.0 1014.0 27.8
2018-Jun-16 16:00N 17°29' W 175°56'1 0.6 1013.9 27.8
2018-Jun-16 15:00N 17°29' W 175°56'0 0.0 1013.9 27.9
2018-Jun-16 14:00N 17°29' W 175°56'3 0.6 1014.2 27.9
2018-Jun-16 09:00N 17°26' W 175°56'1 0.8 1015.5 28.1
2018-Jun-16 08:00N 17°25' W 175°56'1 1.3 1014.8 28.1
2018-Jun-16 07:00N 17°24' W 175°55'0 0.0 1014.1 28.1
2018-Jun-16 06:00N 17°24' W 175°55'1 0.8 1013.7 28.1
2018-Jun-16 05:00N 17°23' W 175°55'1 0.6 1013.2 28.1
2018-Jun-16 03:00N 17°23' W 175°53'0 0.0 1013.0 28.3
2018-Jun-16 02:00N 17°23' W 175°53'3 3.3 1013.2 28.3
2018-Jun-16 01:00N 17°20' W 175°51'1 0.2 1013.6 28.2
2018-Jun-15 21:00N 17°20' W 175°50'1 0.6 1015.0 27.8
2018-Jun-15 20:00N 17°19' W 175°50'0 0.0 1014.9 27.7
2018-Jun-15 19:00N 17°19' W 175°50'1 0.8 1014.4 27.7
2018-Jun-15 18:00N 17°20' W 175°50'1 0.6 1014.2 27.7
2018-Jun-15 17:00N 17°20' W 175°49'0 0.0 1014.0 27.7
2018-Jun-15 16:00N 17°20' W 175°49'1 0.3 1014.1 27.7
2018-Jun-15 14:00N 17°20' W 175°49'0 0.0 1014.2 27.7
2018-Jun-15 13:00N 17°20' W 175°49'2 0.4 1014.7 27.7
2018-Jun-15 09:00N 17°19' W 175°47'0 0.0 1015.5 27.8
2018-Jun-15 08:00N 17°19' W 175°47'1 0.6 1014.7 27.8
2018-Jun-15 07:00N 17°18' W 175°47'0 0.0 1014.0 27.8
2018-Jun-15 06:00N 17°18' W 175°47'1 0.8 1013.2 27.9
2018-Jun-15 05:00N 17°17' W 175°47'0 0.0 1013.0 28.1
2018-Jun-15 04:00N 17°17' W 175°47'0 0.0 1013.1 28.1
2018-Jun-15 03:00N 17°17' W 175°47'1 0.8 1013.5 28.1
2018-Jun-15 02:00N 17°18' W 175°46'0 0.0 1013.9 28.1
2018-Jun-15 01:00N 17°18' W 175°46'2 0.7 1014.5 28.1
2018-Jun-14 22:00N 17°16' W 175°45'1 0.8 1015.7 27.7
2018-Jun-14 21:00N 17°16' W 175°44'1 0.8 1015.5 27.6
2018-Jun-14 20:00N 17°15' W 175°44'0 0.0 1014.9 27.5
2018-Jun-14 19:00N 17°15' W 175°44'1 0.8 1014.4 27.5
2018-Jun-14 18:00N 17°14' W 175°43'0 0.0 1013.9 27.5
2018-Jun-14 17:00N 17°14' W 175°43'1 0.6 1013.4 27.5
2018-Jun-14 16:00N 17°14' W 175°43'1 0.8 1012.7 27.4
2018-Jun-14 15:00N 17°14' W 175°43'0 0.0 1012.6 27.4
2018-Jun-14 14:00N 17°14' W 175°43'3 0.7 1012.7 27.5
2018-Jun-14 10:00N 17°11' W 175°41'0 0.0 1014.4 27.5
2018-Jun-14 09:00N 17°11' W 175°41'1 0.3 1014.4 27.5
2018-Jun-14 07:00N 17°11' W 175°41'1 0.6 1013.2 27.6
2018-Jun-14 06:00N 17°11' W 175°41'1 0.6 1012.6 27.6
2018-Jun-14 05:00N 17°10' W 175°41'0 0.0 1012.0 27.6
2018-Jun-14 04:00N 17°10' W 175°41'1 0.8 1011.8 27.7
2018-Jun-14 03:00N 17°10' W 175°40'0 0.0 1011.7 27.8
2018-Jun-14 02:00N 17°10' W 175°40'0 0.0 1012.2 27.7
2018-Jun-14 01:00N 17°10' W 175°40'3 1.0 1013.1 27.7
2018-Jun-13 22:00N 17°07' W 175°40'1 1.3 1014.3 27.5
2018-Jun-13 21:00N 17°05' W 175°39'1 1.3 1014.3 27.4
2018-Jun-13 20:00N 17°04' W 175°38'1 0.6 1014.1 27.4
2018-Jun-13 19:00N 17°04' W 175°39'1 1.3 1013.8 27.3
2018-Jun-13 18:00N 17°03' W 175°38'1 0.6 1013.3 27.3
2018-Jun-13 17:00N 17°03' W 175°38'1 0.8 1012.7 27.3
2018-Jun-13 16:00N 17°02' W 175°37'1 0.8 1012.4 27.3
2018-Jun-13 15:00N 17°02' W 175°37'0 0.0 1012.3 27.4
2018-Jun-13 14:00N 17°02' W 175°37'4 0.8 1012.7 27.4
2018-Jun-13 09:00N 17°01' W 175°32'1 0.6 1014.4 27.5
2018-Jun-13 08:00N 17°01' W 175°32'1 0.6 1013.8 27.5
2018-Jun-13 07:00N 17°01' W 175°31'1 0.8 1013.1 27.5
2018-Jun-13 06:00N 17°00' W 175°31'0 0.0 1012.5 27.6
2018-Jun-13 05:00N 17°00' W 175°31'1 1.1 1011.9 27.6
2018-Jun-13 04:00N 17°00' W 175°29'1 0.8 1011.7 27.8
2018-Jun-13 03:00N 16°59' W 175°29'0 0.0 1011.8 27.8
2018-Jun-13 02:00N 16°59' W 175°29'0 0.0 1012.0 27.7
2018-Jun-13 01:00N 16°59' W 175°29'2 0.8 1012.5 27.6
2018-Jun-12 22:00N 16°59' W 175°26'0 0.0 1014.0 27.5
2018-Jun-12 21:00N 16°59' W 175°26'1 0.6 1014.2 27.4
2018-Jun-12 20:00N 16°59' W 175°26'1 0.6 1013.8 27.4
2018-Jun-12 19:00N 16°59' W 175°26'0 0.0 1013.1 27.3
2018-Jun-12 18:00N 16°59' W 175°26'2 2.1 1012.5 27.4
2018-Jun-12 17:00N 16°58' W 175°25'0 0.0 1011.9 27.4
2018-Jun-12 16:00N 16°58' W 175°25'0 0.0 1011.6 27.3
2018-Jun-12 15:00N 16°58' W 175°25'0 0.0 1011.5 27.4
2018-Jun-12 14:00N 16°58' W 175°25'3 0.8 1011.5 27.4
2018-Jun-12 10:00N 16°57' W 175°22'0 0.0 1014.0 27.4
2018-Jun-12 09:00N 16°57' W 175°22'1 1.3 1014.0 27.4
2018-Jun-12 08:00N 16°56' W 175°20'1 0.6 1013.6 27.4
2018-Jun-12 07:00N 16°56' W 175°21'1 1.1 1013.3 27.5
2018-Jun-12 06:00N 16°56' W 175°20'1 0.8 1012.8 27.5
2018-Jun-12 05:00N 16°56' W 175°19'1 1.1 1012.5 27.5
2018-Jun-12 04:00N 16°56' W 175°18'1 0.6 1012.3 27.5
2018-Jun-12 03:00N 16°56' W 175°17'0 0.0 1012.1 27.5
2018-Jun-12 02:00N 16°56' W 175°17'5 1.1 1012.6 27.6
2018-Jun-11 21:00N 16°57' W 175°12'1 1.1 1014.8 27.4
2018-Jun-11 20:00N 16°57' W 175°11'0 0.0 1014.8 27.3
2018-Jun-11 18:00N 16°57' W 175°11'2 1.7 1014.1 27.3
2018-Jun-11 17:00N 16°57' W 175°09'0 0.0 1013.6 27.3
2018-Jun-11 16:00N 16°57' W 175°09'0 0.0 1013.4 27.3
2018-Jun-11 15:00N 16°57' W 175°09'0 0.0 1013.4 27.3
2018-Jun-11 14:00N 16°57' W 175°09'5 1.1 1013.5 27.3
2018-Jun-11 09:00N 16°58' W 175°04'1 1.3 1016.5 27.4
2018-Jun-11 08:00N 16°59' W 175°02'1 0.6 1016.2 27.4
2018-Jun-11 07:00N 16°59' W 175°02'1 0.6 1015.7 27.4
2018-Jun-11 06:00N 16°59' W 175°02'1 0.6 1015.0 27.4
2018-Jun-11 05:00N 16°59' W 175°01'0 0.0 1014.4 27.4
2018-Jun-11 04:00N 16°59' W 175°01'1 1.1 1014.0 27.5
2018-Jun-11 03:00N 16°59' W 175°00'0 0.0 1014.0 27.5
2018-Jun-11 02:00N 16°59' W 175°00'4 1.0 1014.6 27.4
2018-Jun-10 22:00N 17°00' W 174°56'0 0.0 1016.9 27.3
2018-Jun-10 21:00N 17°00' W 174°56'1 0.6 1017.3 27.3
2018-Jun-10 20:00N 17°00' W 174°55'0 0.0 1017.2 27.3
2018-Jun-10 19:00N 17°00' W 174°55'2 1.8 1017.0 27.3
2018-Jun-10 18:00N 16°59' W 174°53'0 0.0 1016.5 27.3
2018-Jun-10 17:00N 16°59' W 174°53'0 0.0 1016.0 27.2
2018-Jun-10 16:00N 16°59' W 174°53'0 0.0 1015.6 27.3
2018-Jun-10 15:00N 16°59' W 174°53'0 0.0 1015.5 27.3
2018-Jun-10 14:00N 16°59' W 174°53'4 0.8 1015.6 27.3
2018-Jun-10 09:00N 16°58' W 174°49'1 0.6 1017.6 27.3
2018-Jun-10 08:00N 16°58' W 174°49'2 1.8 1017.2 27.3
2018-Jun-10 07:00N 16°58' W 174°47'0 0.0 1016.4 27.3
2018-Jun-10 06:00N 16°58' W 174°47'1 0.6 1015.9 27.3
2018-Jun-10 05:00N 16°58' W 174°47'2 1.8 1015.2 27.4
2018-Jun-10 04:00N 16°58' W 174°45'0 0.0 1014.8 27.4
2018-Jun-10 03:00N 16°58' W 174°45'0 0.0 1014.7 27.4
2018-Jun-10 02:00N 16°58' W 174°45'4 1.0 1015.1 27.3
2018-Jun-09 22:00N 16°58' W 174°41'2 1.7 1016.8 27.3
2018-Jun-09 21:00N 16°58' W 174°39'0 0.0 1017.2 27.2
2018-Jun-09 20:00N 16°58' W 174°39'1 1.1 1017.4 27.2
2018-Jun-09 19:00N 16°58' W 174°38'2 1.8 1017.1 27.2
2018-Jun-09 18:00N 16°58' W 174°36'0 0.0 1016.6 27.2
2018-Jun-09 17:00N 16°58' W 174°36'0 0.0 1015.9 27.2
2018-Jun-09 16:00N 16°58' W 174°36'   1015.6 27.2

Dump ship's entire track history